Latest Coastal Weather Observations for Robe Airport

IDS60701

Issued at 10:11 pm CST Thursday 20 July 2017 (issued every 10 minutes, with the page automatically refreshed every 10 minutes)

About coastal observations | Map of coastal stations | Coastal observations for SA | Marine services | Other Formats
Station Details ID: 026105 Name: ROBE AIRFIELD Lat: -37.18 Lon: 139.81 Height: 3.0 m
Data from the previous 72 hours. | See also: Recent months at Robe Airport
Date/Time
CST
Temp
°C
Wind Pressure Rain since
9am
mm
Weather Cloud Vis
km
Sea
Height
m
Swell
Dir  Spd
kts
Gust
kts
hPa Trend Height
m
Period
s
Dir
20/10:00pm 4.1 ESE 3 4 1022.3 - 0.0 - - - - - - -
20/09:30pm 3.8 SE 2 3 1022.4 - 0.0 - - - - - - -
20/09:00pm 3.8 CALM 0 0 1022.2 - 0.0 - - - - - - -
20/08:30pm 5.1 CALM 0 1 1022.5 - 0.0 - - - - - - -
20/08:00pm 6.0 SE 3 4 1022.5 - 0.0 - - - - - - -
20/07:30pm 6.2 SE 4 4 1022.5 - 0.0 - - - - - - -
20/07:00pm 6.0 SE 3 4 1022.6 - 0.0 - - - - - - -
20/06:30pm 6.4 SE 3 4 1022.6 - 0.0 - - - - - - -
20/06:00pm 7.0 SE 3 3 1022.4 - 0.0 - - - - - - -
20/05:30pm 8.2 SE 2 3 1022.3 - 0.0 - - - - - - -
20/05:00pm 9.1 SE 2 3 1022.1 - 0.0 - - - - - - -
20/04:30pm 9.9 SE 4 5 1022.1 - 0.0 - - - - - - -
20/04:00pm 10.7 SSE 6 9 1021.9 - 0.0 - - - - - - -
20/03:30pm 11.4 SE 7 9 1021.8 - 0.0 - - - - - - -
20/03:00pm 12.3 SSE 8 11 1021.9 - 0.0 - - - - - - -
20/02:30pm 12.9 SSE 8 11 1021.9 - 0.0 - - - - - - -
20/02:00pm 12.5 SSW 5 7 1022.1 - 0.0 - - - - - - -
20/01:30pm 12.6 S 6 8 1022.3 - 0.0 - - - - - - -
20/01:00pm 13.2 S 7 11 1022.3 - 0.0 - - - - - - -
20/12:30pm 13.1 SSW 7 11 1022.6 - 0.0 - - - - - - -
20/12:00pm 13.5 SSW 5 8 1022.9 - 0.0 - - - - - - -
20/11:30am 13.2 SSW 8 11 1023.1 - 0.0 - - - - - - -
20/11:00am 13.2 SSW 9 12 1023.2 - 0.0 - - - - - - -
20/10:30am 12.5 S 12 17 1023.4 - 0.0 - - - - - - -
20/10:00am 13.1 S 9 13 1023.4 - 0.0 - - - - - - -
20/09:30am 11.9 S 9 13 1023.5 - 0.0 - - - - - - -
20/09:00am 11.9 SSW 7 10 1023.2 - 0.2 - - - - - - -
20/08:30am 10.9 SSW 7 11 1023.2 - 0.2 - - - - - - -
20/08:00am 10.9 SW 8 11 1023.2 - 0.2 - - - - - - -
20/07:30am 11.0 SW 9 14 1023.1 - 0.2 - - - - - - -
20/07:00am 11.1 SW 7 10 1023.1 - 0.2 - - - - - - -
20/06:30am 10.8 SW 8 12 1022.6 - 0.2 - - - - - - -
20/06:00am 11.0 SW 7 10 1022.4 - 0.2 - - - - - - -
20/05:30am 10.9 SW 8 14 1022.3 - 0.2 - - - - - - -
20/05:00am 11.1 SW 7 11 1022.2 - 0.2 - - - - - - -
20/04:30am 11.0 SW 8 14 1022.2 - 0.2 - - - - - - -
20/04:00am 10.7 SW 8 13 1022.2 - 0.2 - - - - - - -
20/03:30am 10.6 SW 7 12 1022.3 - 0.2 - - - - - - -
20/03:00am 10.2 SW 6 9 1022.5 - 0.2 - - - - - - -
20/02:30am 10.6 SW 7 11 1022.5 - 0.2 - - - - - - -
20/02:00am 10.7 SW 7 10 1022.5 - 0.2 - - - - - - -
20/01:30am 10.7 SW 7 12 1022.5 - 0.2 - - - - - - -
20/01:00am 10.6 SW 9 12 1022.8 - 0.2 - - - - - - -
20/12:30am 10.5 SW 9 13 1023.0 - 0.2 - - - - - - -
20/12:00am 10.7 SSW 8 12 1023.1 - 0.2 - - - - - - -
 
Date/Time
CST
Temp
°C
Wind Pressure Rain since
9am
mm
Weather Cloud Vis
km
Sea
Height
m
Swell
Dir  Spd
kts
Gust
kts
hPa Trend Height
m
Period
s
Dir
19/11:30pm 10.9 SW 9 13 1023.3 - 0.2 - - - - - - -
19/11:00pm 10.7 SW 7 11 1023.5 - 0.2 - - - - - - -
19/10:30pm 10.4 WSW 6 11 1023.5 - 0.2 - - - - - - -
19/10:00pm 10.4 WSW 6 12 1023.7 - 0.2 - - - - - - -
19/09:30pm 9.6 WSW 5 8 1023.9 - 0.2 - - - - - - -
19/09:00pm 9.6 SW 4 6 1023.7 - 0.2 - - - - - - -
19/08:30pm 10.1 SW 8 11 1024.2 - 0.2 - - - - - - -
19/08:00pm 10.1 SW 5 6 1024.1 - 0.2 - - - - - - -
19/07:30pm 10.3 SSW 8 13 1023.8 - 0.2 - - - - - - -
19/07:00pm 9.9 SSW 5 8 1023.9 - 0.2 - - - - - - -
19/06:30pm 10.6 SW 8 13 1023.6 - 0.2 - - - - - - -
19/06:00pm 10.5 SW 8 13 1023.4 - 0.2 - - - - - - -
19/05:30pm 10.8 SW 8 11 1023.2 - 0.2 - - - - - - -
19/05:00pm 11.2 SSW 10 14 1023.0 - 0.2 - - - - - - -
19/04:30pm 11.7 SSW 8 13 1023.0 - 0.2 - - - - - - -
19/04:00pm 11.9 SSW 7 10 1022.4 - 0.2 - - - - - - -
19/03:30pm 12.0 SSW 9 13 1022.2 - 0.2 - - - - - - -
19/03:00pm 12.6 S 13 18 1021.9 - 0.2 - - - - - - -
19/02:30pm 12.8 S 15 20 1021.7 - 0.2 - - - - - - -
19/02:00pm 12.3 S 16 21 1021.5 - 0.2 - - - - - - -
19/01:30pm 12.0 SSW 13 16 1021.7 - 0.2 - - - - - - -
19/01:00pm 13.3 S 13 19 1022.0 - 0.2 - - - - - - -
19/12:30pm 12.6 SSW 17 25 1022.1 - 0.2 - - - - - - -
19/12:00pm 12.2 SSW 15 20 1022.4 - 0.2 - - - - - - -
19/11:30am 11.7 SSW 17 24 1022.7 - 0.2 - - - - - - -
19/11:00am 11.8 S 15 22 1022.9 - 0.2 - - - - - - -
19/10:30am 11.7 S 14 22 1022.5 - 0.2 - - - - - - -
19/10:00am 11.4 SSW 19 27 1022.0 - 0.2 - - - - - - -
19/09:32am 10.8 SSW 17 28 1021.6 - 0.0 - - - - - - -
19/09:30am 10.7 SSW 17 26 1021.6 - 0.0 - - - - - - -
19/09:00am 11.3 SSW 16 24 1020.8 - 6.4 - - - - - - -
19/08:30am 11.1 SSW 14 22 1020.1 - 6.4 - - - - - - -
19/08:00am 11.0 SSW 17 23 1019.5 - 6.4 - - - - - - -
19/07:30am 10.4 S 14 19 1018.9 - 6.4 - - - - - - -
19/07:00am 10.2 S 13 21 1018.5 - 6.4 - - - - - - -
19/06:30am 10.5 SSW 16 22 1018.2 - 6.4 - - - - - - -
19/06:00am 10.3 SSW 17 24 1017.7 - 6.4 - - - - - - -
19/05:45am 10.6 SSW 16 27 1017.4 - 6.4 - - - - - - -
19/05:30am 10.2 SSW 15 23 1017.2 - 6.4 - - - - - - -
19/05:10am 10.4 S 17 27 1016.9 - 6.4 - - - - - - -
19/05:00am 10.4 S 17 22 1017.0 - 6.4 - - - - - - -
19/04:35am 10.7 SSW 15 25 1016.8 - 6.2 - - - - - - -
19/04:30am 10.5 SSW 17 25 1016.6 - 6.2 - - - - - - -
19/04:04am 11.0 SSW 17 28 1016.1 - 6.2 - - - - - - -
19/04:00am 11.2 SSW 18 28 1016.1 - 6.2 - - - - - - -
19/03:49am 11.2 SSW 20 33 1015.8 - 6.2 - - - - - - -
19/03:30am 11.4 SSW 21 31 1015.5 - 6.2 - - - - - - -
19/03:07am 11.5 SSW 21 36 1015.2 - 6.2 - - - - - - -
19/03:00am 11.5 SSW 22 29 1015.1 - 6.2 - - - - - - -
19/02:30am 11.2 SSW 18 28 1014.6 - 6.2 - - - - - - -
19/02:23am 11.3 SSW 16 27 1014.6 - 6.2 - - - - - - -
19/02:00am 11.4 SSW 20 29 1014.3 - 6.2 - - - - - - -
19/01:53am 11.2 SSW 18 29 1014.1 - 6.2 - - - - - - -
19/01:30am 11.3 SSW 17 26 1014.2 - 5.8 - - - - - - -
19/01:08am 11.2 SSW 17 27 1013.8 - 5.6 - - - - - - -
19/01:00am 11.0 SSW 17 25 1013.8 - 5.6 - - - - - - -
19/12:48am 11.3 SSW 16 27 1013.7 - 5.6 - - - - - - -
19/12:30am 11.1 SSW 16 23 1013.6 - 5.6 - - - - - - -
19/12:12am 10.9 SSW 16 27 1013.7 - 5.6 - - - - - - -
19/12:00am 11.1 SSW 18 27 1013.6 - 5.6 - - - - - - -
 
Date/Time
CST
Temp
°C
Wind Pressure Rain since
9am
mm
Weather Cloud Vis
km
Sea
Height
m
Swell
Dir  Spd
kts
Gust
kts
hPa Trend Height
m
Period
s
Dir
18/11:50pm 10.8 SSW 17 28 1013.5 - 5.6 - - - - - - -
18/11:30pm 11.0 SSW 17 25 1013.4 - 5.6 - - - - - - -
18/11:07pm 11.0 SSW 18 29 1013.1 - 5.6 - - - - - - -
18/11:00pm 11.0 SSW 19 29 1013.0 - 5.6 - - - - - - -
18/10:30pm 11.3 SSW 16 26 1012.9 - 5.6 - - - - - - -
18/10:18pm 11.1 SSW 16 26 1012.7 - 5.6 - - - - - - -
18/10:00pm 11.0 SSW 18 27 1012.6 - 5.6 - - - - - - -
18/09:49pm 11.5 SW 17 28 1012.3 - 5.4 - - - - - - -
18/09:30pm 11.3 SSW 16 25 1012.1 - 5.4 - - - - - - -
18/09:04pm 10.9 SSW 16 27 1011.7 - 5.4 - - - - - - -
18/09:00pm 11.1 SSW 14 21 1011.7 - 5.4 Recent precip. - - - - - -
18/08:30pm 11.1 SSW 15 21 1011.3 - 5.0 - - - - - - -
18/08:25pm 11.2 SSW 16 26 1011.2 - 4.8 - - - - - - -
18/08:00pm 11.2 SSW 14 21 1010.9 - 4.6 - - - - - - -
18/07:38pm 11.4 SSW 15 27 1010.3 - 4.6 - - - - - - -
18/07:30pm 11.1 SSW 15 24 1010.2 - 4.6 - - - - - - -
18/07:00pm 11.3 SW 11 17 1009.7 - 4.6 - - - - - - -
18/06:30pm 11.6 SW 10 15 1009.3 - 4.4 - - - - - - -
18/06:00pm 11.2 SW 7 13 1009.0 - 4.2 Recent precip. - - - - - -
18/05:30pm 11.2 SW 11 19 1008.6 - 3.8 - - - - - - -
18/05:00pm 11.7 SW 10 16 1008.2 - 3.4 - - - - - - -
18/04:30pm 11.8 SW 9 14 1007.9 - 3.4 - - - - - - -
18/04:00pm 11.6 SW 10 17 1007.6 - 3.4 - - - - - - -
18/03:30pm 11.9 SW 7 12 1007.3 - 3.4 - - - - - - -
18/03:00pm 11.9 SW 8 14 1007.0 - 3.4 Recent precip. - - - - - -
18/02:30pm 12.0 SW 10 18 1006.6 - 3.2 - - - - - - -
18/02:00pm 12.1 SW 10 16 1006.3 - 3.2 - - - - - - -
18/01:30pm 12.6 SW 7 11 1006.1 - 3.2 - - - - - - -
18/01:00pm 12.2 WSW 4 6 1006.0 - 3.0 - - - - - - -
18/12:30pm 11.8 SW 8 13 1006.1 - 2.8 - - - - - - -
18/12:00pm 12.0 SW 8 18 1006.5 - 2.0 Rain - - - - - -
18/11:50am 12.0 WSW 10 22 1006.6 - 1.4 - - - - - - -
18/11:30am 12.6 WSW 5 11 1006.7 - 0.4 - - - - - - -
18/11:00am 11.5 NW 7 10 1006.7 - 0.4 - - - - - - -
18/10:30am 13.5 WNW 8 12 1006.7 - 0.2 - - - - - - -
18/10:00am 11.1 NW 6 10 1007.0 - 0.2 - - - - - - -
18/09:30am 10.5 W 8 13 1007.0 - 0.2 - - - - - - -
18/09:00am 11.7 WNW 10 17 1006.8 - 13.2 - - - - - - -
18/08:30am 11.4 W 10 16 1006.8 - 13.2 - - - - - - -
18/08:00am 11.7 W 7 10 1006.6 - 13.2 - - - - - - -
18/07:30am 10.8 W 7 12 1006.6 - 13.2 - - - - - - -
18/07:00am 10.7 W 6 9 1006.5 - 13.0 - - - - - - -
18/06:30am 10.8 W 6 10 1006.3 - 13.0 - - - - - - -
18/06:00am 10.7 WSW 5 10 1006.0 - 13.0 Recent precip. - - - - - -
18/05:30am 10.5 W 7 11 1005.9 - 13.0 - - - - - - -
18/05:00am 10.4 W 8 15 1005.9 - 12.6 - - - - - - -
18/04:30am 10.7 W 7 13 1005.6 - 12.4 - - - - - - -
18/04:00am 10.0 WSW 8 19 1005.5 - 12.2 - - - - - - -
18/03:30am 10.3 W 6 11 1005.5 - 11.6 - - - - - - -
18/03:00am 10.0 WNW 9 13 1005.6 - 11.6 Rain - - - - - -
18/02:30am 9.8 NW 6 9 1005.6 - 11.2 - - - - - - -
18/02:00am 10.0 WNW 12 19 1005.5 - 9.4 - - - - - - -
18/01:30am 9.7 WNW 15 22 1005.5 - 9.0 - - - - - - -
18/01:22am 10.3 WNW 9 22 1005.4 - 8.6 - - - - - - -
18/01:00am 10.6 WNW 5 7 1005.3 - 8.6 - - - - - - -
18/12:30am 10.4 WNW 5 8 1005.4 - 8.6 - - - - - - -
18/12:00am 10.5 NW 9 16 1005.5 - 8.4 Recent precip. - - - - - -
 
Date/Time
CST
Temp
°C
Wind Pressure Rain since
9am
mm
Weather Cloud Vis
km
Sea
Height
m
Swell
Dir  Spd
kts
Gust
kts
hPa Trend Height
m
Period
s
Dir
17/11:30pm 10.1 NW 5 9 1005.7 - 8.2 - - - - - - -
17/11:00pm 10.2 NW 5 7 1005.7 - 7.0 - - - - - - -
17/10:30pm 10.6 NW 11 15 1005.8 - 6.6 - - - - - - -

Other Formats:

Comma delimited format used in spreadsheet applications
http://www.bom.gov.au/fwo/IDS60701/IDS60701.95816.axf

JavaScript Object Notation format (JSON) in row-major order
http://www.bom.gov.au/fwo/IDS60701/IDS60701.95816.json